Time;durP1;ratioP1;P1;durP2;ratioP2;P2;SDS_P1;SDS_P2;PMS_P1;PMS_P2;Temp;Humidity;BMP_temperature;BMP_pressure;BME280_temperature;BME280_humidity;BME280_pressure;Samples;Min_cycle;Max_cycle;Signal;HPM_P1;HPM_P2
2022/11/17 00:01:59;;;;;;;28.25;16.15;;;7.80;99.90;;;;;;5029876;28;20429;-65
2022/11/17 00:04:27;;;;;;;29.90;16.67;;;7.90;99.90;;;;;;5032925;28;20076;-64
2022/11/17 00:06:53;;;;;;;33.75;17.60;;;7.90;99.90;;;;;;5026790;28;20172;-65
2022/11/17 00:09:19;;;;;;;32.08;15.80;;;7.90;99.90;;;;;;5030819;28;20321;-65
2022/11/17 00:14:31;;;;;;;27.48;15.93;;;7.80;99.90;;;;;;5030573;28;20049;-65
2022/11/17 00:16:57;;;;;;;25.20;15.23;;;7.80;99.90;;;;;;5027064;28;20052;-63
2022/11/17 00:22:06;;;;;;;25.42;14.80;;;7.80;99.90;;;;;;5031608;28;20037;-64
2022/11/17 00:24:32;;;;;;;28.42;15.60;;;7.90;99.90;;;;;;5049210;28;20039;-64
2022/11/17 00:27:00;;;;;;;25.05;14.98;;;7.80;99.90;;;;;;5036596;28;20072;-63
2022/11/17 00:29:27;;;;;;;25.55;16.10;;;7.90;99.90;;;;;;5039329;28;20029;-66
2022/11/17 00:34:37;;;;;;;27.52;15.70;;;7.80;99.90;;;;;;5038550;28;20638;-64
2022/11/17 00:37:03;;;;;;;27.00;14.77;;;7.90;99.90;;;;;;5030175;28;20161;-64
2022/11/17 00:39:29;;;;;;;24.08;14.50;;;7.90;99.90;;;;;;5027679;28;20034;-65
2022/11/17 00:41:54;;;;;;;25.02;16.95;;;7.80;99.90;;;;;;5033309;28;20099;-65
2022/11/17 00:44:20;;;;;;;29.52;16.60;;;7.90;99.90;;;;;;5030250;28;20045;-65
2022/11/17 00:46:46;;;;;;;23.77;15.50;;;7.90;99.90;;;;;;5029908;28;20661;-65
2022/11/17 00:49:13;;;;;;;23.48;14.93;;;7.90;99.90;;;;;;5030140;28;20436;-65
2022/11/17 00:51:38;;;;;;;23.30;14.25;;;7.80;99.90;;;;;;5025875;28;20038;-65
2022/11/17 00:54:06;;;;;;;25.90;14.98;;;7.90;99.90;;;;;;5028488;28;20047;-64
2022/11/17 00:56:32;;;;;;;23.00;15.20;;;7.90;99.90;;;;;;5029311;28;20103;-64
2022/11/17 00:58:58;;;;;;;22.77;13.55;;;7.90;99.90;;;;;;5026691;28;20034;-66
2022/11/17 01:01:24;;;;;;;24.10;14.95;;;7.80;99.90;;;;;;5028623;28;20033;-62
2022/11/17 01:04:01;;;;;;;21.58;14.10;;;7.80;99.90;;;;;;5031437;28;20511;-66
2022/11/17 01:06:28;;;;;;;27.58;15.60;;;7.80;99.90;;;;;;5025464;28;20136;-65
2022/11/17 01:08:54;;;;;;;24.77;13.27;;;7.80;99.90;;;;;;5027732;28;20041;-64
2022/11/17 01:11:20;;;;;;;24.58;12.70;;;7.80;99.90;;;;;;5026122;28;20040;-65
2022/11/17 01:13:46;;;;;;;23.77;13.55;;;7.80;99.90;;;;;;5026558;28;20069;-64
2022/11/17 01:16:15;;;;;;;22.25;14.02;;;7.80;99.90;;;;;;5028025;28;20045;-65
2022/11/17 01:18:42;;;;;;;23.23;14.05;;;7.90;99.90;;;;;;5029882;28;20049;-64
2022/11/17 01:21:13;;;;;;;24.52;14.43;;;7.80;99.90;;;;;;5029879;28;20508;-65
2022/11/17 01:23:42;;;;;;;30.17;15.15;;;7.80;99.90;;;;;;5028885;28;20112;-66
2022/11/17 01:26:13;;;;;;;22.13;13.48;;;7.90;99.90;;;;;;5031528;28;20041;-63
2022/11/17 01:28:40;;;;;;;18.15;12.13;;;7.90;99.90;;;;;;5026197;28;20034;-65
2022/11/17 01:31:30;;;;;;;27.02;14.70;;;7.90;99.90;;;;;;5028829;28;20041;-64
2022/11/17 01:33:57;;;;;;;20.17;11.48;;;7.90;99.90;;;;;;5029461;28;20041;-64
2022/11/17 01:36:28;;;;;;;21.17;12.68;;;7.90;99.90;;;;;;5028375;28;20053;-65
2022/11/17 01:38:53;;;;;;;24.52;13.55;;;7.90;99.90;;;;;;5027397;28;20048;-66
2022/11/17 01:41:25;;;;;;;20.63;12.52;;;7.90;99.90;;;;;;5032808;28;20045;-66
2022/11/17 01:44:18;;;;;;;22.48;13.23;;;7.90;99.90;;;;;;5028204;28;20087;-65
2022/11/17 01:46:43;;;;;;;22.83;13.10;;;7.90;99.90;;;;;;5031421;28;20421;-65
2022/11/17 01:49:23;;;;;;;23.63;13.38;;;7.90;99.90;;;;;;5029887;28;20033;-66
2022/11/17 01:51:53;;;;;;;23.88;12.88;;;7.90;99.90;;;;;;5028964;28;20037;-65
2022/11/17 01:54:22;;;;;;;23.05;13.52;;;7.90;99.90;;;;;;5034834;28;20041;-64
2022/11/17 01:56:51;;;;;;;20.90;13.60;;;7.90;99.90;;;;;;5027545;28;20045;-64
2022/11/17 01:59:32;;;;;;;31.63;14.10;;;7.90;99.90;;;;;;5022185;28;20057;-64
2022/11/17 02:01:58;;;;;;;21.27;11.50;;;7.90;99.90;;;;;;5025068;28;21749;-66
2022/11/17 02:04:28;;;;;;;22.05;13.35;;;7.90;99.90;;;;;;5025809;28;20034;-66
2022/11/17 02:07:06;;;;;;;19.98;12.02;;;7.90;99.90;;;;;;5036930;28;20049;-65
2022/11/17 02:09:33;;;;;;;22.23;14.45;;;7.90;99.90;;;;;;5028979;28;20045;-65
2022/11/17 02:11:59;;;;;;;22.83;12.43;;;7.90;99.90;;;;;;5029217;28;20041;-66
2022/11/17 02:14:25;;;;;;;55.17;14.60;;;7.90;99.90;;;;;;5027664;28;20048;-65
2022/11/17 02:16:50;;;;;;;18.52;11.88;;;7.90;99.90;;;;;;5034880;28;20480;-63
2022/11/17 02:19:19;;;;;;;24.70;12.98;;;7.90;99.90;;;;;;5027134;28;20064;-63
2022/11/17 02:22:31;;;;;;;20.30;13.07;;;7.90;99.90;;;;;;5033162;28;20469;-66
2022/11/17 02:25:18;;;;;;;21.30;13.35;;;7.80;99.90;;;;;;5027098;28;20048;-66
2022/11/17 02:27:49;;;;;;;22.27;13.68;;;7.70;99.90;;;;;;5024633;28;20084;-64
2022/11/17 02:30:20;;;;;;;21.80;12.27;;;7.60;99.90;;;;;;5030080;28;20043;-66
2022/11/17 02:32:53;;;;;;;22.10;13.80;;;7.50;99.90;;;;;;5028442;28;20072;-64
2022/11/17 02:35:34;;;;;;;26.48;14.60;;;7.50;99.90;;;;;;5029655;28;20057;-64
2022/11/17 02:38:19;;;;;;;23.40;13.77;;;7.50;99.90;;;;;;5027250;28;20037;-65
2022/11/17 02:41:13;;;;;;;21.92;12.45;;;7.40;99.90;;;;;;5028606;28;20063;-65
2022/11/17 02:44:07;;;;;;;23.45;14.35;;;7.40;99.90;;;;;;5024990;28;20449;-64
2022/11/17 02:47:05;;;;;;;24.42;13.52;;;7.40;99.90;;;;;;5015662;28;20045;-65
2022/11/17 02:50:02;;;;;;;24.63;13.88;;;7.40;99.90;;;;;;5027534;28;20068;-66
2022/11/17 02:52:29;;;;;;;29.23;15.88;;;7.40;99.90;;;;;;5026819;28;20124;-66
2022/11/17 02:55:02;;;;;;;25.20;15.02;;;7.40;99.90;;;;;;5027189;28;20049;-67
2022/11/17 02:57:46;;;;;;;25.95;15.55;;;7.40;99.90;;;;;;5039272;28;20087;-67
2022/11/17 03:00:19;;;;;;;30.45;16.20;;;7.30;99.90;;;;;;5025732;28;20082;-67
2022/11/17 03:03:06;;;;;;;28.05;15.55;;;7.30;99.90;;;;;;5030046;28;20049;-67
2022/11/17 03:05:47;;;;;;;28.92;15.98;;;7.30;99.90;;;;;;5024789;28;20054;-66
2022/11/17 03:08:31;;;;;;;;;;;7.20;99.90;;;;;;5027850;28;20072;-67
2022/11/17 03:11:06;;;;;;;29.40;15.13;;;7.20;99.90;;;;;;5027299;28;19924;-64
2022/11/17 03:13:45;;;;;;;30.10;15.77;;;7.20;99.90;;;;;;5025280;28;20072;-67
2022/11/17 03:16:41;;;;;;;28.17;15.52;;;7.10;99.90;;;;;;5026742;28;20056;-69
2022/11/17 03:19:18;;;;;;;27.52;15.73;;;7.10;99.90;;;;;;5029729;28;20060;-68
2022/11/17 03:22:02;;;;;;;28.58;17.23;;;7.10;99.90;;;;;;5042003;28;20036;-67
2022/11/17 03:24:32;;;;;;;31.65;16.38;;;7.10;99.90;;;;;;5019876;28;20808;-68
2022/11/17 03:27:14;;;;;;;27.63;15.32;;;7.10;99.90;;;;;;5024950;28;20524;-67
2022/11/17 03:29:45;;;;;;;30.13;15.75;;;7.10;99.90;;;;;;5028016;28;20042;-67
2022/11/17 03:32:13;;;;;;;31.50;15.65;;;7.10;99.90;;;;;;5034129;28;20059;-68
2022/11/17 03:34:46;;;;;;;29.90;16.75;;;7.10;99.90;;;;;;5007251;28;20393;-68
2022/11/17 03:37:14;;;;;;;32.03;17.13;;;7.10;99.90;;;;;;5026516;28;20033;-69
2022/11/17 03:39:50;;;;;;;26.85;15.57;;;7.00;99.90;;;;;;5027139;28;20045;-68
2022/11/17 03:42:29;;;;;;;27.08;15.77;;;7.00;99.90;;;;;;5030462;28;20037;-70
2022/11/17 03:45:13;;;;;;;33.08;16.30;;;7.00;99.90;;;;;;5030997;28;20033;-70
2022/11/17 03:47:40;;;;;;;31.58;16.77;;;7.00;99.90;;;;;;5031455;28;20092;-69
2022/11/17 03:50:24;;;;;;;36.85;17.45;;;7.00;99.90;;;;;;5029372;28;20088;-67
2022/11/17 03:52:50;;;;;;;40.55;15.65;;;6.90;99.90;;;;;;5029164;28;20050;-68
2022/11/17 03:55:16;;;;;;;38.55;15.43;;;6.80;99.90;;;;;;5028053;28;20046;-67
2022/11/17 03:57:53;;;;;;;28.35;15.07;;;6.90;99.90;;;;;;5049418;28;20444;-67
2022/11/17 04:00:19;;;;;;;34.47;17.45;;;6.80;99.90;;;;;;5030017;28;20478;-69
2022/11/17 04:02:46;;;;;;;32.45;16.40;;;6.80;99.90;;;;;;5043437;28;20115;-68
2022/11/17 04:05:15;;;;;;;34.22;16.70;;;6.90;99.90;;;;;;5029250;28;20057;-67
2022/11/17 04:07:43;;;;;;;31.98;15.77;;;6.70;99.90;;;;;;5030106;28;20037;-67
2022/11/17 04:10:20;;;;;;;32.80;16.75;;;6.90;99.90;;;;;;5030655;28;20056;-67
2022/11/17 04:18:15;;;;;;;29.30;16.42;;;6.70;99.90;;;;;;5032498;28;20108;-67
2022/11/17 04:20:41;;;;;;;25.45;13.93;;;6.70;99.90;;;;;;5032406;28;20119;-68
2022/11/17 04:23:10;;;;;;;28.45;14.98;;;6.70;99.90;;;;;;5044042;28;20034;-65
2022/11/17 04:28:36;;;;;;;27.75;15.65;;;6.70;99.90;;;;;;5028658;28;20060;-67
2022/11/17 04:31:15;;;;;;;25.88;14.88;;;6.70;99.90;;;;;;5030250;28;20040;-66
2022/11/17 04:33:46;;;;;;;24.13;14.45;;;6.80;99.90;;;;;;5032547;28;20436;-65
2022/11/17 04:36:13;;;;;;;28.50;14.57;;;6.60;99.90;;;;;;5040436;28;22780;-67
2022/11/17 04:38:44;;;;;;;31.77;14.82;;;6.60;99.90;;;;;;5037303;28;20029;-68
2022/11/17 04:43:56;;;;;;;29.33;14.80;;;6.70;99.90;;;;;;5026837;28;20037;-68
2022/11/17 04:46:23;;;;;;;24.42;15.07;;;6.50;99.90;;;;;;5029983;28;20048;-67
2022/11/17 04:48:50;;;;;;;27.33;14.50;;;6.50;99.90;;;;;;5030967;28;20174;-66
2022/11/17 04:51:16;;;;;;;25.83;13.45;;;6.60;99.90;;;;;;5029146;28;20041;-69
2022/11/17 04:53:42;;;;;;;26.20;13.35;;;6.40;99.90;;;;;;5025661;28;20037;-66
2022/11/17 04:56:09;;;;;;;24.35;13.82;;;6.50;99.90;;;;;;5033015;28;20052;-67
2022/11/17 04:58:34;;;;;;;27.15;14.15;;;6.40;99.90;;;;;;5025970;28;20219;-68
2022/11/17 05:01:11;;;;;;;24.17;13.15;;;6.40;99.90;;;;;;5028173;28;20468;-66
2022/11/17 05:04:00;;;;;;;23.60;12.88;;;6.40;99.90;;;;;;5025966;28;20067;-66
2022/11/17 05:06:45;;;;;;;25.50;12.77;;;6.40;99.90;;;;;;5015944;28;20505;-69
2022/11/17 05:09:14;;;;;;;25.58;13.68;;;6.40;99.90;;;;;;5028368;28;20052;-68
2022/11/17 05:14:26;;;;;;;24.08;13.15;;;6.40;99.90;;;;;;5026287;28;20049;-68
2022/11/17 05:17:04;;;;;;;25.88;12.73;;;6.30;99.90;;;;;;5027932;28;20582;-67
2022/11/17 05:19:33;;;;;;;22.50;12.90;;;6.20;99.90;;;;;;5026986;28;20641;-66
2022/11/17 05:22:00;;;;;;;22.80;12.75;;;6.30;99.90;;;;;;5033172;28;20131;-67
2022/11/17 05:24:25;;;;;;;21.30;11.50;;;6.20;99.90;;;;;;5027779;28;20037;-65
2022/11/17 05:26:51;;;;;;;24.20;12.35;;;6.30;99.90;;;;;;5037017;28;20048;-67
2022/11/17 05:29:20;;;;;;;25.20;13.63;;;6.30;99.90;;;;;;5028884;28;20041;-67
2022/11/17 05:31:46;;;;;;;24.65;13.45;;;6.40;99.90;;;;;;5031587;28;20047;-67
2022/11/17 05:34:13;;;;;;;24.42;12.85;;;6.20;99.90;;;;;;5025328;28;20096;-68
2022/11/17 05:36:40;;;;;;;25.92;12.45;;;6.20;99.90;;;;;;5029599;28;20072;-65
2022/11/17 05:39:06;;;;;;;23.27;12.52;;;6.20;99.90;;;;;;5035102;28;20037;-65
2022/11/17 05:41:33;;;;;;;22.63;12.18;;;6.20;99.90;;;;;;5032169;28;20534;-68
2022/11/17 05:43:58;;;;;;;21.98;11.80;;;6.20;99.90;;;;;;5043462;28;20482;-67
2022/11/17 05:46:25;;;;;;;17.70;10.15;;;6.10;99.90;;;;;;5029826;28;20075;-67
2022/11/17 05:48:52;;;;;;;22.08;11.73;;;6.10;99.90;;;;;;5029221;28;20113;-66
2022/11/17 05:51:19;;;;;;;20.33;11.98;;;6.20;99.90;;;;;;5029489;28;20044;-66
2022/11/17 05:53:45;;;;;;;22.77;12.98;;;6.10;99.90;;;;;;5029633;28;20493;-66
2022/11/17 05:56:41;;;;;;;23.70;12.40;;;6.10;99.90;;;;;;5025495;28;20065;-65
2022/11/17 05:59:25;;;;;;;19.23;11.00;;;6.10;99.90;;;;;;5027136;28;20095;-66
2022/11/17 06:01:59;;;;;;;21.13;11.25;;;6.00;99.90;;;;;;5042866;28;20061;-67
2022/11/17 06:04:25;;;;;;;18.50;10.63;;;6.10;99.90;;;;;;5031635;28;20033;-65
2022/11/17 06:06:53;;;;;;;27.58;12.35;;;6.10;99.90;;;;;;5028396;28;20405;-66
2022/11/17 06:09:18;;;;;;;15.65;9.85;;;6.00;99.90;;;;;;5027988;28;20389;-67
2022/11/17 06:11:47;;;;;;;22.25;10.48;;;6.10;99.90;;;;;;5027874;28;20034;-66
2022/11/17 06:14:12;;;;;;;17.58;10.95;;;6.10;99.90;;;;;;5025445;28;20091;-69
2022/11/17 06:16:42;;;;;;;18.65;9.88;;;6.10;99.90;;;;;;5023849;28;20029;-68
2022/11/17 06:19:14;;;;;;;16.83;10.77;;;6.10;99.90;;;;;;5018511;28;20056;-68
2022/11/17 06:21:40;;;;;;;16.02;9.60;;;6.10;99.90;;;;;;5027583;28;20191;-67
2022/11/17 06:24:07;;;;;;;13.23;8.50;;;6.00;99.90;;;;;;5026033;28;21044;-67
2022/11/17 06:26:33;;;;;;;19.80;11.07;;;6.00;99.90;;;;;;5038604;28;20034;-68
2022/11/17 06:29:02;;;;;;;13.45;9.10;;;6.00;99.90;;;;;;5005538;28;20038;-67
2022/11/17 06:31:27;;;;;;;17.48;9.82;;;6.00;99.90;;;;;;5037370;28;20029;-67
2022/11/17 06:33:53;;;;;;;16.67;9.75;;;6.00;99.90;;;;;;5035323;28;20534;-67
2022/11/17 06:36:19;;;;;;;18.15;10.13;;;6.00;99.90;;;;;;5030113;28;20033;-68
2022/11/17 06:38:44;;;;;;;18.75;10.15;;;6.00;99.90;;;;;;5030811;28;20170;-66
2022/11/17 06:41:10;;;;;;;13.38;8.75;;;5.90;99.90;;;;;;5034356;28;20531;-68
2022/11/17 06:43:36;;;;;;;17.10;9.95;;;6.00;99.90;;;;;;5036215;28;20041;-68
2022/11/17 06:46:03;;;;;;;17.38;10.27;;;6.10;99.90;;;;;;5041410;28;20047;-67
2022/11/17 06:48:34;;;;;;;15.70;9.43;;;6.00;99.90;;;;;;5033459;28;22327;-66
2022/11/17 06:51:00;;;;;;;;;;;5.90;99.90;;;;;;5038760;28;20044;-69
2022/11/17 06:53:27;;;;;;;20.48;10.13;;;6.00;99.90;;;;;;5035953;28;20331;-68
2022/11/17 06:56:00;;;;;;;17.48;10.38;;;5.90;99.90;;;;;;5036610;28;20073;-66
2022/11/17 06:58:26;;;;;;;14.75;8.48;;;6.10;99.90;;;;;;5041344;28;20037;-66
2022/11/17 07:00:52;;;;;;;18.63;10.45;;;6.10;99.90;;;;;;5041896;28;20052;-65
2022/11/17 07:03:17;;;;;;;16.50;10.10;;;6.00;99.90;;;;;;5018356;28;20385;-66
2022/11/17 07:05:43;;;;;;;18.05;10.73;;;6.00;99.90;;;;;;5031606;28;20065;-67
2022/11/17 07:08:09;;;;;;;16.13;10.02;;;6.10;99.90;;;;;;5046075;28;20497;-65
2022/11/17 07:10:35;;;;;;;16.77;9.70;;;6.10;99.90;;;;;;5042919;28;20044;-67
2022/11/17 07:13:01;;;;;;;17.90;10.38;;;6.10;99.90;;;;;;5034433;28;20029;-64
2022/11/17 07:15:27;;;;;;;17.30;10.13;;;6.00;99.90;;;;;;5041598;28;20048;-65
2022/11/17 07:17:53;;;;;;;15.55;9.23;;;6.10;99.90;;;;;;5035821;28;20032;-65
2022/11/17 07:20:18;;;;;;;14.57;9.15;;;6.10;99.90;;;;;;5029497;28;20083;-66
2022/11/17 07:22:44;;;;;;;15.07;9.27;;;6.00;99.90;;;;;;5030863;28;20032;-69
2022/11/17 07:25:10;;;;;;;15.52;9.20;;;6.00;99.90;;;;;;5031827;28;20045;-66
2022/11/17 07:27:36;;;;;;;18.27;9.75;;;6.10;99.90;;;;;;5030884;28;20091;-64
2022/11/17 07:30:06;;;;;;;14.75;9.57;;;6.10;99.90;;;;;;5060081;28;20646;-68
2022/11/17 07:32:32;;;;;;;14.90;9.00;;;6.10;99.90;;;;;;5044109;28;20047;-66
2022/11/17 07:35:00;;;;;;;12.77;7.88;;;6.00;99.90;;;;;;5050204;28;20917;-66
2022/11/17 07:37:26;;;;;;;15.75;9.15;;;6.10;99.90;;;;;;5039479;28;20071;-65
2022/11/17 07:39:52;;;;;;;14.25;8.73;;;6.20;99.90;;;;;;5044612;28;20053;-64
2022/11/17 07:42:18;;;;;;;14.55;8.70;;;6.10;99.90;;;;;;5042520;28;20067;-65
2022/11/17 07:44:43;;;;;;;10.95;7.22;;;6.00;99.90;;;;;;5052078;28;20476;-65
2022/11/17 07:47:09;;;;;;;15.93;9.10;;;6.10;99.90;;;;;;5049376;28;20834;-66
2022/11/17 07:49:34;;;;;;;12.50;7.45;;;5.90;99.90;;;;;;5036836;28;20071;-66
2022/11/17 07:52:00;;;;;;;16.30;8.93;;;6.10;99.90;;;;;;5033010;28;20107;-65
2022/11/17 07:54:25;;;;;;;10.98;8.00;;;6.00;99.90;;;;;;5034088;28;20053;-66
2022/11/17 07:56:51;;;;;;;13.40;8.13;;;6.00;99.90;;;;;;5045899;28;20040;-64
2022/11/17 07:59:16;;;;;;;14.50;9.18;;;6.00;99.90;;;;;;5043847;28;20124;-66
2022/11/17 08:01:42;;;;;;;13.80;8.10;;;6.00;99.90;;;;;;5040742;28;20086;-64
2022/11/17 08:04:07;;;;;;;13.75;8.02;;;6.10;99.90;;;;;;5045832;28;20041;-64
2022/11/17 08:06:34;;;;;;;14.00;8.25;;;6.00;99.90;;;;;;5030240;28;20405;-66
2022/11/17 08:09:00;;;;;;;14.02;8.73;;;6.00;99.90;;;;;;5034905;28;20045;-63
2022/11/17 08:11:25;;;;;;;14.00;8.93;;;6.00;99.90;;;;;;5033717;28;20041;-65
2022/11/17 08:13:51;;;;;;;14.88;9.30;;;6.00;99.90;;;;;;5041939;28;20049;-67
2022/11/17 08:16:17;;;;;;;13.88;9.07;;;6.10;99.90;;;;;;5037011;28;20128;-65
2022/11/17 08:18:42;;;;;;;12.75;9.18;;;6.00;99.90;;;;;;5035883;28;20423;-65
2022/11/17 08:21:10;;;;;;;14.82;9.35;;;6.10;99.90;;;;;;5049649;28;20041;-68
2022/11/17 08:23:37;;;;;;;15.10;9.32;;;6.00;99.90;;;;;;5031070;28;20045;-66
2022/11/17 08:26:04;;;;;;;15.88;8.70;;;6.10;99.90;;;;;;5037756;28;20037;-66
2022/11/17 08:28:29;;;;;;;19.75;10.55;;;6.10;99.90;;;;;;5035216;28;20056;-66
2022/11/17 08:30:55;;;;;;;14.15;9.63;;;6.10;99.90;;;;;;5035956;28;20037;-66
2022/11/17 08:33:21;;;;;;;16.45;9.75;;;6.10;99.90;;;;;;5037934;28;20045;-66
2022/11/17 08:35:46;;;;;;;17.63;8.18;;;6.20;99.90;;;;;;5040817;28;20041;-66
2022/11/17 08:38:14;;;;;;;15.80;9.93;;;6.10;99.90;;;;;;5042666;28;20051;-66
2022/11/17 08:40:40;;;;;;;15.63;9.80;;;6.10;99.90;;;;;;5040681;28;20087;-65
2022/11/17 08:43:06;;;;;;;16.63;10.15;;;6.10;99.90;;;;;;5036748;28;20053;-65
2022/11/17 08:45:32;;;;;;;17.10;9.77;;;6.10;99.90;;;;;;5034380;28;20041;-68
2022/11/17 08:47:58;;;;;;;18.67;10.40;;;6.10;99.90;;;;;;5033335;28;20037;-66
2022/11/17 08:50:23;;;;;;;16.30;9.52;;;6.10;99.90;;;;;;5045456;28;20076;-68
2022/11/17 08:52:50;;;;;;;18.10;10.38;;;6.10;99.90;;;;;;5029413;28;20041;-68
2022/11/17 08:55:16;;;;;;;14.68;9.23;;;6.20;99.90;;;;;;5023472;28;20069;-64
2022/11/17 08:57:42;;;;;;;17.50;10.13;;;6.10;99.90;;;;;;5033952;28;20064;-68
2022/11/17 09:00:09;;;;;;;14.73;9.10;;;6.00;99.90;;;;;;5036286;28;20091;-67
2022/11/17 09:02:36;;;;;;;18.08;10.90;;;6.10;99.90;;;;;;5028851;28;20033;-67
2022/11/17 09:05:02;;;;;;;16.75;10.13;;;6.10;99.90;;;;;;4998766;28;1052173;-69
2022/11/17 09:07:31;;;;;;;13.65;8.90;;;6.20;99.90;;;;;;5032131;28;20620;-66
2022/11/17 09:09:57;;;;;;;14.57;9.00;;;6.20;99.90;;;;;;5025089;28;20045;-67
2022/11/17 09:12:23;;;;;;;13.93;9.02;;;6.10;99.90;;;;;;5033660;28;20094;-67
2022/11/17 09:14:48;;;;;;;14.07;9.30;;;6.10;99.90;;;;;;5012459;28;20126;-67
2022/11/17 09:17:14;;;;;;;13.10;8.07;;;6.20;99.90;;;;;;5031025;28;20032;-65
2022/11/17 09:19:39;;;;;;;13.93;8.65;;;6.10;99.90;;;;;;5034245;28;21868;-65
2022/11/17 09:22:05;;;;;;;11.50;7.35;;;6.20;99.90;;;;;;5041299;28;20032;-66
2022/11/17 09:24:31;;;;;;;13.45;8.55;;;6.10;99.90;;;;;;5020152;28;20033;-66
2022/11/17 09:26:57;;;;;;;13.13;7.95;;;6.20;99.90;;;;;;5032089;28;20041;-66
2022/11/17 09:29:22;;;;;;;13.27;8.43;;;6.20;99.90;;;;;;5040253;28;20037;-64
2022/11/17 09:31:48;;;;;;;12.02;8.20;;;6.20;99.90;;;;;;5035383;28;20037;-66
2022/11/17 09:34:15;;;;;;;10.15;7.22;;;6.10;99.90;;;;;;5032794;28;20167;-67
2022/11/17 09:36:41;;;;;;;12.52;7.82;;;6.10;99.90;;;;;;5030649;28;20045;-66
2022/11/17 09:39:07;;;;;;;11.80;7.40;;;6.10;99.90;;;;;;5035330;28;20041;-67
2022/11/17 09:41:41;;;;;;;13.82;8.35;;;6.20;99.90;;;;;;5032525;28;20040;-66
2022/11/17 09:44:30;;;;;;;14.07;8.07;;;6.10;99.90;;;;;;5021783;28;20049;-66
2022/11/17 09:47:17;;;;;;;13.45;8.23;;;6.20;99.90;;;;;;5030939;28;20045;-66
2022/11/17 09:50:13;;;;;;;13.07;8.45;;;6.10;99.90;;;;;;5035133;28;20389;-65
2022/11/17 09:53:02;;;;;;;13.65;8.35;;;6.20;99.90;;;;;;5036354;28;20037;-65
2022/11/17 09:55:35;;;;;;;14.40;8.77;;;6.20;99.90;;;;;;5029632;28;20099;-65
2022/11/17 09:58:31;;;;;;;16.85;9.13;;;6.10;99.90;;;;;;5014640;28;20184;-68
2022/11/17 10:00:57;;;;;;;11.00;7.35;;;6.10;99.90;;;;;;5033563;28;20102;-66
2022/11/17 10:03:30;;;;;;;14.18;8.30;;;6.20;99.90;;;;;;5038179;28;20576;-69
2022/11/17 10:05:57;;;;;;;12.18;7.65;;;6.20;99.90;;;;;;5034675;28;20050;-68
2022/11/17 10:09:03;;;;;;;14.73;7.72;;;6.20;99.90;;;;;;5032698;28;20366;-67
2022/11/17 10:11:36;;;;;;;12.45;7.68;;;6.10;99.90;;;;;;5022105;28;20045;-65
2022/11/17 10:14:07;;;;;;;12.60;8.00;;;6.10;99.90;;;;;;5039949;28;20057;-66
2022/11/17 10:16:34;;;;;;;13.82;8.88;;;6.10;99.90;;;;;;5023585;28;20152;-66
2022/11/17 10:19:08;;;;;;;14.38;8.60;;;6.30;99.90;;;;;;5031618;28;20041;-64
2022/11/17 10:21:35;;;;;;;13.60;8.55;;;6.20;99.90;;;;;;5047954;28;20420;-69
2022/11/17 10:24:01;;;;;;;11.57;8.00;;;6.20;99.90;;;;;;5030416;28;20533;-69
2022/11/17 10:26:27;;;;;;;14.70;9.00;;;6.20;99.90;;;;;;5030186;28;20135;-66
2022/11/17 10:29:09;;;;;;;12.35;7.18;;;6.30;99.90;;;;;;5037947;28;20045;-68
2022/11/17 10:31:44;;;;;;;12.50;7.68;;;6.40;99.90;;;;;;5014958;28;20056;-69
2022/11/17 10:34:11;;;;;;;13.75;8.43;;;6.20;99.90;;;;;;5035348;28;20095;-68
2022/11/17 10:36:44;;;;;;;11.40;7.28;;;6.40;99.90;;;;;;5042271;28;20432;-67
2022/11/17 10:39:34;;;;;;;13.52;7.80;;;6.30;99.90;;;;;;5033562;28;20041;-66
2022/11/17 10:42:16;;;;;;;13.52;7.40;;;6.40;99.90;;;;;;5062377;28;20059;-67
2022/11/17 10:44:43;;;;;;;13.13;7.30;;;6.40;99.90;;;;;;5048001;28;20099;-68
2022/11/17 10:47:29;;;;;;;11.63;6.85;;;6.40;99.90;;;;;;5043995;28;20045;-69
2022/11/17 10:50:24;;;;;;;11.82;7.43;;;6.30;99.90;;;;;;5039992;28;20095;-71
2022/11/17 10:52:52;;;;;;;12.75;8.02;;;6.40;99.90;;;;;;5027275;28;20053;-70
2022/11/17 10:55:23;;;;;;;11.68;6.80;;;6.20;99.90;;;;;;5029950;28;20059;-70
2022/11/17 10:57:57;;;;;;;11.60;7.03;;;6.40;99.90;;;;;;5039614;28;20139;-67
2022/11/17 11:00:31;;;;;;;10.80;6.65;;;6.30;99.90;;;;;;5030415;28;20510;-66
2022/11/17 11:03:18;;;;;;;11.10;6.63;;;6.50;99.90;;;;;;5033823;28;20033;-69
2022/11/17 11:05:59;;;;;;;12.05;6.95;;;6.50;99.90;;;;;;5036509;28;20532;-69
2022/11/17 11:09:06;;;;;;;10.45;6.55;;;6.30;99.90;;;;;;5032295;28;20037;-67
2022/11/17 11:11:35;;;;;;;12.35;7.63;;;6.30;99.90;;;;;;5038173;28;20079;-68
2022/11/17 11:14:10;;;;;;;9.00;5.55;;;6.40;99.90;;;;;;5039385;28;20053;-70
2022/11/17 11:16:36;;;;;;;11.05;6.63;;;6.40;99.90;;;;;;5036675;28;20044;-68
2022/11/17 11:19:01;;;;;;;11.65;7.15;;;6.40;99.90;;;;;;5045489;28;20037;-68
2022/11/17 11:21:44;;;;;;;12.43;7.10;;;6.40;99.90;;;;;;5054266;28;20039;-67
2022/11/17 11:24:22;;;;;;;12.30;6.72;;;6.40;99.90;;;;;;5041506;28;20407;-68
2022/11/17 11:27:00;;;;;;;11.38;6.95;;;6.40;99.90;;;;;;5042193;28;20052;-68
2022/11/17 11:29:49;;;;;;;10.98;6.82;;;6.30;99.90;;;;;;5058478;28;20070;-68
2022/11/17 11:32:18;;;;;;;12.82;7.60;;;6.40;99.90;;;;;;5041719;28;20681;-68
2022/11/17 11:34:52;;;;;;;12.65;7.15;;;6.50;99.90;;;;;;5033840;28;20136;-69
2022/11/17 11:37:19;;;;;;;13.02;7.20;;;6.40;99.90;;;;;;5043642;28;20042;-68
2022/11/17 11:40:20;;;;;;;13.30;7.28;;;6.60;99.90;;;;;;5028734;28;20045;-69
2022/11/17 11:42:57;;;;;;;13.75;7.90;;;6.70;99.90;;;;;;5016092;28;20033;-70
2022/11/17 11:45:43;;;;;;;12.13;7.38;;;6.70;99.90;;;;;;5047407;28;20037;-67
2022/11/17 11:48:25;;;;;;;12.65;7.30;;;6.50;99.90;;;;;;5031830;28;20384;-68
2022/11/17 11:50:57;;;;;;;14.05;7.20;;;6.80;99.90;;;;;;5041021;28;20038;-67
2022/11/17 11:53:40;;;;;;;13.85;7.70;;;6.70;99.90;;;;;;5035408;28;20136;-68
2022/11/17 11:56:23;;;;;;;12.80;7.28;;;6.80;99.90;;;;;;5016766;28;20056;-70
2022/11/17 11:59:01;;;;;;;10.20;6.45;;;6.60;99.90;;;;;;5036800;28;20481;-67
2022/11/17 12:01:36;;;;;;;14.90;7.55;;;6.80;99.90;;;;;;5054734;28;20041;-71
2022/11/17 12:04:16;;;;;;;11.57;7.30;;;6.50;99.90;;;;;;5042290;28;20048;-67
2022/11/17 12:06:52;;;;;;;;;;;6.70;99.90;;;;;;5039044;28;20564;-66
2022/11/17 12:09:29;;;;;;;13.85;7.22;;;6.50;99.90;;;;;;5044291;28;19916;-68
2022/11/17 12:11:59;;;;;;;9.55;6.00;;;6.50;99.90;;;;;;5016386;28;20054;-64
2022/11/17 12:14:32;;;;;;;10.20;6.63;;;6.60;99.90;;;;;;5034444;28;20037;-66
2022/11/17 12:17:13;;;;;;;10.95;6.60;;;6.60;99.90;;;;;;5037100;28;20028;-67
2022/11/17 12:19:54;;;;;;;10.38;6.47;;;6.60;99.90;;;;;;5051684;28;20042;-65
2022/11/17 12:22:28;;;;;;;13.10;7.40;;;6.70;99.90;;;;;;5043904;28;20048;-66
2022/11/17 12:25:23;;;;;;;11.77;7.03;;;6.70;99.90;;;;;;5027825;28;20080;-66
2022/11/17 12:27:51;;;;;;;10.82;6.65;;;6.60;99.90;;;;;;5032080;28;20034;-66
2022/11/17 12:30:46;;;;;;;13.25;7.20;;;6.60;99.90;;;;;;5031528;28;20035;-66
2022/11/17 12:33:11;;;;;;;12.05;6.63;;;6.90;99.90;;;;;;5022717;28;20045;-68
2022/11/17 12:35:38;;;;;;;12.30;6.70;;;6.90;99.90;;;;;;5033874;28;20057;-66
2022/11/17 12:38:14;;;;;;;8.68;6.05;;;6.80;99.90;;;;;;5030225;28;20053;-68
2022/11/17 12:40:49;;;;;;;10.48;6.25;;;6.70;99.90;;;;;;5030601;28;20045;-68
2022/11/17 12:43:15;;;;;;;10.88;6.00;;;6.70;99.90;;;;;;5036640;28;20061;-68
2022/11/17 12:46:06;;;;;;;12.30;6.40;;;6.70;99.90;;;;;;5043899;28;20069;-67
2022/11/17 12:48:34;;;;;;;10.98;6.50;;;7.00;99.90;;;;;;5025004;28;20680;-67
2022/11/17 12:51:25;;;;;;;12.20;6.03;;;6.70;99.90;;;;;;5030947;28;20884;-67
2022/11/17 12:54:00;;;;;;;11.90;6.60;;;6.80;99.90;;;;;;5030705;28;20107;-70
2022/11/17 12:56:32;;;;;;;8.88;5.75;;;7.00;99.90;;;;;;5034858;28;20037;-67
2022/11/17 12:59:10;;;;;;;9.15;5.50;;;7.10;99.90;;;;;;5032565;28;20068;-69
2022/11/17 13:02:00;;;;;;;9.23;5.95;;;6.90;99.90;;;;;;5029943;28;20044;-70
2022/11/17 13:04:43;;;;;;;11.43;6.28;;;7.10;99.90;;;;;;5042559;28;20045;-68
2022/11/17 13:07:24;;;;;;;10.68;6.30;;;7.10;99.90;;;;;;5033407;28;20088;-67
2022/11/17 13:09:58;;;;;;;11.23;5.80;;;7.00;99.90;;;;;;5043811;28;20528;-68
2022/11/17 13:12:29;;;;;;;9.45;6.13;;;7.00;99.90;;;;;;5031070;28;20049;-67
2022/11/17 13:15:03;;;;;;;12.68;6.40;;;7.00;99.90;;;;;;5033359;28;20076;-66
2022/11/17 13:17:39;;;;;;;8.95;6.28;;;7.10;99.90;;;;;;5035275;28;20030;-69
2022/11/17 13:20:23;;;;;;;11.70;6.97;;;7.30;99.90;;;;;;5026357;28;20386;-71
2022/11/17 13:23:07;;;;;;;12.77;7.30;;;7.20;99.90;;;;;;5031549;28;20069;-65
2022/11/17 13:25:33;;;;;;;13.07;6.80;;;7.20;99.90;;;;;;5047087;28;20040;-67
2022/11/17 13:27:59;;;;;;;13.10;7.68;;;7.10;99.90;;;;;;5043701;28;20045;-66
2022/11/17 13:30:27;;;;;;;13.43;8.10;;;7.10;99.90;;;;;;5028985;28;20110;-68